createdAt,value
2017-06-14T00:00:24.953Z,17.44
2017-06-14T00:00:53.111Z,17.56
2017-06-14T00:01:21.193Z,17.56
2017-06-14T00:01:49.273Z,17.42
2017-06-14T00:02:17.428Z,17.39
2017-06-14T00:02:45.588Z,17.54
2017-06-14T00:03:13.657Z,17.49
2017-06-14T00:03:41.805Z,17.54
2017-06-14T00:04:09.857Z,17.44
2017-06-14T00:04:37.958Z,17.56
2017-06-14T00:05:06.020Z,17.53
2017-06-14T00:05:34.057Z,17.53
2017-06-14T00:06:02.118Z,17.59
2017-06-14T00:06:30.289Z,17.6
2017-06-14T00:06:58.440Z,17.66
2017-06-14T00:07:26.504Z,17.68
2017-06-14T00:07:54.542Z,17.69
2017-06-14T00:08:22.666Z,17.53
2017-06-14T00:08:50.615Z,17.57
2017-06-14T00:09:18.763Z,17.54
2017-06-14T00:09:46.930Z,17.57
2017-06-14T00:10:15.064Z,17.59
2017-06-14T00:10:43.233Z,17.65
2017-06-14T00:11:11.331Z,17.59
2017-06-14T00:11:39.470Z,17.69
2017-06-14T00:12:07.635Z,17.71
2017-06-14T00:12:35.718Z,17.75
2017-06-14T00:13:03.884Z,17.69
2017-06-14T00:13:32.113Z,17.75
2017-06-14T00:14:00.180Z,17.73
2017-06-14T00:14:28.355Z,17.71
2017-06-14T00:14:56.411Z,17.76
2017-06-14T00:15:24.584Z,17.82
2017-06-14T00:15:52.717Z,17.87
2017-06-14T00:16:20.795Z,17.8
2017-06-14T00:16:49.008Z,17.76
2017-06-14T00:17:17.156Z,17.88
2017-06-14T00:17:45.304Z,17.86
2017-06-14T00:18:13.425Z,17.88
2017-06-14T00:18:41.545Z,17.87
2017-06-14T00:19:09.665Z,17.88
2017-06-14T00:19:37.700Z,17.94
2017-06-14T00:20:05.840Z,17.88
2017-06-14T00:20:33.945Z,17.93
2017-06-14T00:21:02.080Z,18
2017-06-14T00:21:30.258Z,17.98
2017-06-14T00:21:58.274Z,17.91
2017-06-14T00:22:26.221Z,17.94
2017-06-14T00:22:54.374Z,17.95
2017-06-14T00:23:22.558Z,18.02
2017-06-14T00:23:50.695Z,17.98
2017-06-14T00:24:18.761Z,18
2017-06-14T00:24:46.818Z,18.02
2017-06-14T00:25:14.981Z,18.03
2017-06-14T00:25:43.039Z,18.03
2017-06-14T00:26:11.149Z,18.06
2017-06-14T00:26:39.301Z,18.02
2017-06-14T00:27:07.438Z,18.02
2017-06-14T00:27:35.522Z,18
2017-06-14T00:28:03.536Z,18.08
2017-06-14T00:28:31.489Z,17.97
2017-06-14T00:28:59.622Z,18.02
2017-06-14T00:29:27.673Z,18.08
2017-06-14T00:29:55.813Z,18
2017-06-14T00:30:23.993Z,17.98
2017-06-14T00:30:52.105Z,18
2017-06-14T00:31:20.234Z,18
2017-06-14T00:31:48.395Z,17.97
2017-06-14T00:32:16.451Z,18.05
2017-06-14T00:32:44.603Z,18
2017-06-14T00:33:12.768Z,18.08
2017-06-14T00:33:40.832Z,18.06
2017-06-14T00:34:08.897Z,18.09
2017-06-14T00:34:37.068Z,18.08
2017-06-14T00:35:05.147Z,18.09
2017-06-14T00:35:33.315Z,18.11
2017-06-14T00:36:01.362Z,18.06
2017-06-14T00:36:29.407Z,18.11
2017-06-14T00:36:57.462Z,18.08
2017-06-14T00:37:25.627Z,18.06
2017-06-14T00:37:53.817Z,18.11
2017-06-14T00:38:21.866Z,18.05
2017-06-14T00:38:49.909Z,18.11
2017-06-14T00:39:17.844Z,18.11
2017-06-14T00:39:45.904Z,18.08
2017-06-14T00:40:14.066Z,18.05
2017-06-14T00:40:42.217Z,18.08
2017-06-14T00:41:10.281Z,18.12
2017-06-14T00:41:38.366Z,18.11
2017-06-14T00:42:06.535Z,18.16
2017-06-14T00:42:34.512Z,18.06
2017-06-14T00:43:02.582Z,18.09
2017-06-14T00:43:30.641Z,18.15
2017-06-14T00:43:58.719Z,18.08
2017-06-14T00:44:26.867Z,18.12
2017-06-14T00:44:54.996Z,18.18
2017-06-14T00:45:22.962Z,18.08
2017-06-14T00:45:51.120Z,18.12
2017-06-14T00:46:19.270Z,18.05
2017-06-14T00:46:47.380Z,18.05
2017-06-14T00:47:15.337Z,18.11
2017-06-14T00:47:43.492Z,18.11
2017-06-14T00:48:11.580Z,18.09
2017-06-14T00:48:39.720Z,18.09
2017-06-14T00:49:07.762Z,18.11
2017-06-14T00:49:35.888Z,18.06
2017-06-14T00:50:03.954Z,18.06
2017-06-14T00:50:32.104Z,18.02
2017-06-14T00:51:00.152Z,18.03
2017-06-14T00:51:28.128Z,17.97
2017-06-14T00:51:56.187Z,17.95
2017-06-14T00:52:24.325Z,17.95
2017-06-14T00:52:52.876Z,17.95
2017-06-14T00:53:20.941Z,17.91
2017-06-14T00:53:48.990Z,18.03
2017-06-14T00:54:16.967Z,17.91
2017-06-14T00:54:45.119Z,17.93
2017-06-14T00:55:13.186Z,17.93
2017-06-14T00:55:41.350Z,17.94
2017-06-14T00:56:09.511Z,17.91
2017-06-14T00:56:37.519Z,17.88
2017-06-14T00:57:05.688Z,17.87
2017-06-14T00:57:33.812Z,17.8
2017-06-14T00:58:02.012Z,17.82
2017-06-14T00:58:30.166Z,17.75
2017-06-14T00:58:58.213Z,17.66
2017-06-14T00:59:26.379Z,17.63
2017-06-14T00:59:54.428Z,17.56
2017-06-14T01:00:22.493Z,17.56
2017-06-14T01:00:50.624Z,17.57
2017-06-14T01:01:18.769Z,17.56
2017-06-14T01:01:46.823Z,17.42
2017-06-14T01:02:14.988Z,17.44
2017-06-14T01:02:43.119Z,17.44
2017-06-14T01:03:11.187Z,17.49
2017-06-14T01:03:39.353Z,17.41
2017-06-14T01:04:07.518Z,17.37
2017-06-14T01:04:35.629Z,17.47
2017-06-14T01:05:03.770Z,17.35
2017-06-14T01:05:31.944Z,17.34
2017-06-14T01:05:59.913Z,17.38
2017-06-14T01:06:28.078Z,17.35
2017-06-14T01:06:56.213Z,17.34
2017-06-14T01:07:24.183Z,17.32
2017-06-14T01:07:52.324Z,17.37
2017-06-14T01:08:20.297Z,17.31
2017-06-14T01:08:48.451Z,17.2
2017-06-14T01:09:16.582Z,17.24
2017-06-14T01:09:44.616Z,17.19
2017-06-14T01:10:12.646Z,17.17
2017-06-14T01:10:40.799Z,17.14
2017-06-14T01:11:08.843Z,17.14
2017-06-14T01:11:37.007Z,17.16
2017-06-14T01:12:05.140Z,17.16
2017-06-14T01:12:33.272Z,17.17
2017-06-14T01:13:01.423Z,17.12
2017-06-14T01:13:29.583Z,17.14
2017-06-14T01:13:57.664Z,17.14
2017-06-14T01:14:25.697Z,17.14
2017-06-14T01:14:53.756Z,17.13
2017-06-14T01:15:21.892Z,17.13
2017-06-14T01:15:49.988Z,17.07
2017-06-14T01:16:17.963Z,16.99
2017-06-14T01:16:46.000Z,17.02
2017-06-14T01:17:14.066Z,17.02
2017-06-14T01:17:42.104Z,16.99
2017-06-14T01:18:10.174Z,17.04
2017-06-14T01:18:38.345Z,16.97
2017-06-14T01:19:06.474Z,16.98
2017-06-14T01:19:34.519Z,16.99
2017-06-14T01:20:02.678Z,16.97
2017-06-14T01:20:30.731Z,16.94
2017-06-14T01:20:58.753Z,16.92
2017-06-14T01:21:26.856Z,16.99
2017-06-14T01:21:55.000Z,16.89
2017-06-14T01:22:23.165Z,16.97
2017-06-14T01:22:51.300Z,16.87
2017-06-14T01:23:19.456Z,16.92
2017-06-14T01:23:47.603Z,16.97
2017-06-14T01:24:15.740Z,16.89
2017-06-14T01:24:43.901Z,16.94
2017-06-14T01:25:12.054Z,16.84
2017-06-14T01:25:40.195Z,16.91
2017-06-14T01:26:08.325Z,16.92
2017-06-14T01:26:36.359Z,16.91
2017-06-14T01:27:04.502Z,16.94
2017-06-14T01:27:32.545Z,16.97
2017-06-14T01:28:00.529Z,16.98
2017-06-14T01:28:28.683Z,16.89
2017-06-14T01:28:56.848Z,16.86
2017-06-14T01:29:24.808Z,16.86
2017-06-14T01:29:52.965Z,16.77
2017-06-14T01:30:21.026Z,16.8
2017-06-14T01:30:49.091Z,16.86
2017-06-14T01:31:17.250Z,16.77
2017-06-14T01:31:45.498Z,16.77
2017-06-14T01:32:13.595Z,16.76
2017-06-14T01:32:41.614Z,16.61
2017-06-14T01:33:09.683Z,16.69
2017-06-14T01:33:37.839Z,16.69
2017-06-14T01:34:05.983Z,16.68
2017-06-14T01:34:34.122Z,16.66
2017-06-14T01:35:02.168Z,16.69
2017-06-14T01:35:30.344Z,16.66
2017-06-14T01:35:58.489Z,16.64
2017-06-14T01:36:26.638Z,16.72
2017-06-14T01:36:54.799Z,16.68
2017-06-14T01:37:22.855Z,16.69
2017-06-14T01:37:51.003Z,16.72
2017-06-14T01:38:19.149Z,16.65
2017-06-14T01:38:47.209Z,16.65
2017-06-14T01:39:15.349Z,16.65
2017-06-14T01:39:43.429Z,16.72
2017-06-14T01:40:11.465Z,16.69
2017-06-14T01:40:39.481Z,16.74
2017-06-14T01:41:07.537Z,16.72
2017-06-14T01:41:35.678Z,16.66
2017-06-14T01:42:03.806Z,16.69
2017-06-14T01:42:31.666Z,16.72
2017-06-14T01:42:59.807Z,16.76
2017-06-14T01:43:27.957Z,16.68
2017-06-14T01:43:56.114Z,16.72
2017-06-14T01:44:24.150Z,16.68
2017-06-14T01:44:52.288Z,16.65
2017-06-14T01:45:20.433Z,16.66
2017-06-14T01:45:48.615Z,16.73
2017-06-14T01:46:16.769Z,16.72
2017-06-14T01:46:44.850Z,16.74
2017-06-14T01:47:12.991Z,16.68
2017-06-14T01:47:41.129Z,16.72
2017-06-14T01:48:09.086Z,16.74
2017-06-14T01:48:37.252Z,16.73
2017-06-14T01:49:05.372Z,16.72
2017-06-14T01:49:33.499Z,16.77
2017-06-14T01:50:01.608Z,16.74
2017-06-14T01:50:29.553Z,16.77
2017-06-14T01:50:57.713Z,16.77
2017-06-14T01:51:25.861Z,16.82
2017-06-14T01:51:54.031Z,16.82
2017-06-14T01:52:21.988Z,16.79
2017-06-14T01:52:50.149Z,16.83
2017-06-14T01:53:18.196Z,16.86
2017-06-14T01:53:46.356Z,16.87
2017-06-14T01:54:14.298Z,16.87
2017-06-14T01:54:42.449Z,16.92
2017-06-14T01:55:10.413Z,16.84
2017-06-14T01:55:38.433Z,16.98
2017-06-14T01:56:06.579Z,16.94
2017-06-14T01:56:34.618Z,16.97
2017-06-14T01:57:02.690Z,16.95
2017-06-14T01:57:30.746Z,16.98
2017-06-14T01:57:58.927Z,17.04
2017-06-14T01:58:27.087Z,17.02
2017-06-14T01:58:55.145Z,17.01
2017-06-14T01:59:23.275Z,17.05
2017-06-14T01:59:51.437Z,17.09
2017-06-14T02:00:19.570Z,17.12
2017-06-14T02:00:47.706Z,17.16
2017-06-14T02:01:15.764Z,17.13
2017-06-14T02:01:43.815Z,17.1
2017-06-14T02:02:11.979Z,17.13
2017-06-14T02:02:40.188Z,17.14
2017-06-14T02:03:08.384Z,17.22
2017-06-14T02:03:36.453Z,17.22
2017-06-14T02:04:04.476Z,17.19
2017-06-14T02:04:32.607Z,17.23
2017-06-14T02:05:00.755Z,17.28
2017-06-14T02:05:28.827Z,17.27
2017-06-14T02:05:56.969Z,17.3
2017-06-14T02:06:24.842Z,17.37
2017-06-14T02:06:52.995Z,17.37
2017-06-14T02:07:21.024Z,17.38
2017-06-14T02:07:48.990Z,17.37
2017-06-14T02:08:17.043Z,17.37
2017-06-14T02:08:45.076Z,17.32
2017-06-14T02:09:13.208Z,17.38
2017-06-14T02:09:41.278Z,17.37
2017-06-14T02:10:09.425Z,17.46
2017-06-14T02:10:37.549Z,17.46
2017-06-14T02:11:05.719Z,17.46
2017-06-14T02:11:33.862Z,17.47
2017-06-14T02:12:01.990Z,17.47
2017-06-14T02:12:30.153Z,17.47
2017-06-14T02:12:58.232Z,17.44
2017-06-14T02:13:26.392Z,17.44
2017-06-14T02:13:54.622Z,17.46
2017-06-14T02:14:22.783Z,17.46
2017-06-14T02:14:50.730Z,17.42
2017-06-14T02:15:18.882Z,17.39
2017-06-14T02:15:47.037Z,17.42
2017-06-14T02:16:15.172Z,17.38
2017-06-14T02:16:43.237Z,17.41
2017-06-14T02:17:11.375Z,17.34
2017-06-14T02:17:39.492Z,17.37
2017-06-14T02:18:07.639Z,17.41
2017-06-14T02:18:35.796Z,17.38
2017-06-14T02:19:03.935Z,17.38
2017-06-14T02:19:32.105Z,17.39
2017-06-14T02:20:00.140Z,17.37
2017-06-14T02:20:28.268Z,17.32
2017-06-14T02:20:56.431Z,17.34
2017-06-14T02:21:24.577Z,17.37
2017-06-14T02:21:52.541Z,17.35
2017-06-14T02:22:20.596Z,17.35
2017-06-14T02:22:48.745Z,17.42
2017-06-14T02:23:16.792Z,17.41
2017-06-14T02:23:44.929Z,17.39
2017-06-14T02:24:13.076Z,17.41
2017-06-14T02:24:41.219Z,17.39
2017-06-14T02:25:09.374Z,17.35
2017-06-14T02:25:37.533Z,17.35
2017-06-14T02:26:05.673Z,17.31
2017-06-14T02:26:33.653Z,17.23
2017-06-14T02:27:01.714Z,17.27
2017-06-14T02:27:29.844Z,17.24
2017-06-14T02:27:57.904Z,17.16
2017-06-14T02:28:26.040Z,17.2
2017-06-14T02:28:54.198Z,17.12
2017-06-14T02:29:22.328Z,17.14
2017-06-14T02:29:50.460Z,17.1
2017-06-14T02:30:18.607Z,17.14
2017-06-14T02:30:46.771Z,17.14
2017-06-14T02:31:14.923Z,17.16
2017-06-14T02:31:43.067Z,17.16
2017-06-14T02:32:11.237Z,17.09
2017-06-14T02:32:39.450Z,16.99
2017-06-14T02:33:08.783Z,17.13
2017-06-14T02:33:36.940Z,17.12
2017-06-14T02:34:05.019Z,17.01
2017-06-14T02:34:33.051Z,17.05
2017-06-14T02:35:01.227Z,16.99
2017-06-14T02:35:29.273Z,17.05
2017-06-14T02:35:57.450Z,17.05
2017-06-14T02:36:25.628Z,17.14
2017-06-14T02:36:53.672Z,17.16
2017-06-14T02:37:21.813Z,17.16
2017-06-14T02:37:49.843Z,17.05
2017-06-14T02:38:17.973Z,17.16
2017-06-14T02:38:46.118Z,17.13
2017-06-14T02:39:14.262Z,17.09
2017-06-14T02:39:42.380Z,17.05
2017-06-14T02:40:10.562Z,17.02
2017-06-14T02:40:38.618Z,17.05
2017-06-14T02:41:06.749Z,17.02
2017-06-14T02:41:34.902Z,17.01
2017-06-14T02:42:03.026Z,16.99
2017-06-14T02:42:31.051Z,16.91
2017-06-14T02:42:59.181Z,16.91
2017-06-14T02:43:27.249Z,16.89
2017-06-14T02:43:55.406Z,16.87
2017-06-14T02:44:23.417Z,16.87
2017-06-14T02:44:51.443Z,16.82
2017-06-14T02:45:19.497Z,16.83
2017-06-14T02:45:47.472Z,16.82
2017-06-14T02:46:15.599Z,16.77
2017-06-14T02:46:43.738Z,16.8
2017-06-14T02:47:11.713Z,16.77
2017-06-14T02:47:39.868Z,16.8
2017-06-14T02:48:08.002Z,16.8
2017-06-14T02:48:36.055Z,16.83
2017-06-14T02:49:04.213Z,16.76
2017-06-14T02:49:32.353Z,16.77
2017-06-14T02:50:00.519Z,16.8
2017-06-14T02:50:28.472Z,16.77
2017-06-14T02:50:56.612Z,16.8
2017-06-14T02:51:24.781Z,16.79
2017-06-14T02:51:52.938Z,16.83
2017-06-14T02:52:21.094Z,16.82
2017-06-14T02:52:49.213Z,16.86
2017-06-14T02:53:17.352Z,16.87
2017-06-14T02:53:45.531Z,16.86
2017-06-14T02:54:13.658Z,16.89
2017-06-14T02:54:41.627Z,16.91
2017-06-14T02:55:09.665Z,16.97
2017-06-14T02:55:37.750Z,16.97
2017-06-14T02:56:05.909Z,16.98
2017-06-14T02:56:34.058Z,17.01
2017-06-14T02:57:02.200Z,17.04
2017-06-14T02:57:30.351Z,16.98
2017-06-14T02:57:58.402Z,17.09
2017-06-14T02:58:26.436Z,17.14
2017-06-14T02:58:54.575Z,17.13
2017-06-14T02:59:22.510Z,17.2
2017-06-14T02:59:50.653Z,17.2
2017-06-14T03:00:18.799Z,17.14
2017-06-14T03:00:46.958Z,17.19
2017-06-14T03:01:14.917Z,17.2
2017-06-14T03:01:43.071Z,17.14
2017-06-14T03:02:11.252Z,17.23
2017-06-14T03:02:39.384Z,17.2
2017-06-14T03:03:07.517Z,17.2
2017-06-14T03:03:35.675Z,17.23
2017-06-14T03:04:03.830Z,17.24
2017-06-14T03:04:32.048Z,17.22
2017-06-14T03:05:00.096Z,17.17
2017-06-14T03:05:28.232Z,17.13
2017-06-14T03:05:56.384Z,17.13
2017-06-14T03:06:24.451Z,17.1
2017-06-14T03:06:52.589Z,17.16
2017-06-14T03:07:20.663Z,17.05
2017-06-14T03:07:48.618Z,17.04
2017-06-14T03:08:16.750Z,17.05
2017-06-14T03:08:44.894Z,17.04
2017-06-14T03:09:13.019Z,16.98
2017-06-14T03:09:41.168Z,16.99
2017-06-14T03:10:09.224Z,16.95
2017-06-14T03:10:37.282Z,16.87
2017-06-14T03:11:05.439Z,16.95
2017-06-14T03:11:33.586Z,16.92
2017-06-14T03:12:01.724Z,16.95
2017-06-14T03:12:29.817Z,16.87
2017-06-14T03:12:57.941Z,16.94
2017-06-14T03:13:26.086Z,16.97
2017-06-14T03:13:54.143Z,16.98
2017-06-14T03:14:22.183Z,16.97
2017-06-14T03:14:50.236Z,17.04
2017-06-14T03:15:18.296Z,16.95
2017-06-14T03:15:46.342Z,16.95
2017-06-14T03:16:14.358Z,16.86
2017-06-14T03:16:42.485Z,16.99
2017-06-14T03:17:10.520Z,16.94
2017-06-14T03:17:38.659Z,16.87
2017-06-14T03:18:06.704Z,16.89
2017-06-14T03:18:34.834Z,16.87
2017-06-14T03:19:02.992Z,16.87
2017-06-14T03:19:31.067Z,16.84
2017-06-14T03:19:59.194Z,16.86
2017-06-14T03:20:27.359Z,16.83
2017-06-14T03:20:55.300Z,16.77
2017-06-14T03:21:23.412Z,16.77
2017-06-14T03:21:51.296Z,16.74
2017-06-14T03:22:19.427Z,16.76
2017-06-14T03:22:47.452Z,16.74
2017-06-14T03:23:15.578Z,16.72
2017-06-14T03:23:43.717Z,16.68
2017-06-14T03:24:11.768Z,16.73
2017-06-14T03:24:39.933Z,16.65
2017-06-14T03:25:08.068Z,16.62
2017-06-14T03:25:36.183Z,16.58
2017-06-14T03:26:04.221Z,16.54
2017-06-14T03:26:32.378Z,16.61
2017-06-14T03:27:00.400Z,16.57
2017-06-14T03:27:28.566Z,16.58
2017-06-14T03:27:56.627Z,16.62
2017-06-14T03:28:24.760Z,16.64
2017-06-14T03:28:52.806Z,16.72
2017-06-14T03:29:20.979Z,16.68
2017-06-14T03:29:49.123Z,16.74
2017-06-14T03:30:17.196Z,16.74
2017-06-14T03:30:45.340Z,16.73
2017-06-14T03:31:13.505Z,16.8
2017-06-14T03:31:41.483Z,16.74
2017-06-14T03:32:09.674Z,16.8
2017-06-14T03:32:37.802Z,16.84
2017-06-14T03:33:05.929Z,16.86
2017-06-14T03:33:34.080Z,16.91
2017-06-14T03:34:02.234Z,16.87
2017-06-14T03:34:30.383Z,16.87
2017-06-14T03:34:58.430Z,16.92
2017-06-14T03:35:26.546Z,16.92
2017-06-14T03:35:54.697Z,16.95
2017-06-14T03:36:22.862Z,17.02
2017-06-14T03:36:51.027Z,16.97
2017-06-14T03:37:19.189Z,16.97
2017-06-14T03:37:47.219Z,17.04
2017-06-14T03:38:15.344Z,17.02
2017-06-14T03:38:43.385Z,17.04
2017-06-14T03:39:11.518Z,16.97
2017-06-14T03:39:39.650Z,17.1
2017-06-14T03:40:07.787Z,17.02
2017-06-14T03:40:35.822Z,17.07
2017-06-14T03:41:03.938Z,17.05
2017-06-14T03:41:32.093Z,17.13
2017-06-14T03:42:00.146Z,17.04
2017-06-14T03:42:28.180Z,16.99
2017-06-14T03:42:56.345Z,17.01
2017-06-14T03:43:24.488Z,17.05
2017-06-14T03:43:52.538Z,17.05
2017-06-14T03:44:20.690Z,17.02
2017-06-14T03:44:48.849Z,17.05
2017-06-14T03:45:16.987Z,17.1
2017-06-14T03:45:45.151Z,17.05
2017-06-14T03:46:13.264Z,17.01
2017-06-14T03:46:41.398Z,17.01
2017-06-14T03:47:09.523Z,17.01
2017-06-14T03:47:37.653Z,17.02
2017-06-14T03:48:05.616Z,17.01
2017-06-14T03:48:33.780Z,17.01
2017-06-14T03:49:01.878Z,17.04
2017-06-14T03:49:30.013Z,17.05
2017-06-14T03:49:58.157Z,17.05
2017-06-14T03:50:26.303Z,17.04
2017-06-14T03:50:54.470Z,17.01
2017-06-14T03:51:22.513Z,17.05
2017-06-14T03:51:50.563Z,17.05
2017-06-14T03:52:18.703Z,17.09
2017-06-14T03:52:46.858Z,17.14
2017-06-14T03:53:15.005Z,17.13
2017-06-14T03:53:43.150Z,17.14
2017-06-14T03:54:11.289Z,17.1
2017-06-14T03:54:39.423Z,17.12
2017-06-14T03:55:07.393Z,17.19
2017-06-14T03:55:35.438Z,17.16
2017-06-14T03:56:03.569Z,17.17
2017-06-14T03:56:31.521Z,17.12
2017-06-14T03:56:59.666Z,17.14
2017-06-14T03:57:27.709Z,17.1
2017-06-14T03:57:55.645Z,17.13
2017-06-14T03:58:23.715Z,17.16
2017-06-14T03:58:51.866Z,17.17
2017-06-14T03:59:20.001Z,17.14
2017-06-14T03:59:48.145Z,17.24
2017-06-14T04:00:16.272Z,17.17
2017-06-14T04:00:45.511Z,17.2
2017-06-14T04:01:13.634Z,17.19
2017-06-14T04:01:41.777Z,17.24
2017-06-14T04:02:09.928Z,17.23
2017-06-14T04:02:37.978Z,17.22
2017-06-14T04:03:06.115Z,17.27
2017-06-14T04:03:34.194Z,17.32
2017-06-14T04:04:02.357Z,17.32
2017-06-14T04:04:30.512Z,17.38
2017-06-14T04:04:58.661Z,17.3
2017-06-14T04:05:26.796Z,17.31
2017-06-14T04:05:54.949Z,17.38
2017-06-14T04:06:23.110Z,17.38
2017-06-14T04:06:51.265Z,17.38
2017-06-14T04:07:19.417Z,17.39
2017-06-14T04:07:47.549Z,17.39
2017-06-14T04:08:15.680Z,17.42
2017-06-14T04:08:43.840Z,17.44
2017-06-14T04:09:11.951Z,17.42
2017-06-14T04:09:40.086Z,17.38
2017-06-14T04:10:08.212Z,17.42
2017-06-14T04:10:36.344Z,17.34
2017-06-14T04:11:04.461Z,17.34
2017-06-14T04:11:32.521Z,17.34
2017-06-14T04:12:00.654Z,17.34
2017-06-14T04:12:28.777Z,17.34
2017-06-14T04:12:56.919Z,17.44
2017-06-14T04:13:25.083Z,17.39
2017-06-14T04:13:53.230Z,17.35
2017-06-14T04:14:21.367Z,17.41
2017-06-14T04:14:49.393Z,17.35
2017-06-14T04:15:17.537Z,17.41
2017-06-14T04:15:45.692Z,17.38
2017-06-14T04:16:13.738Z,17.32
2017-06-14T04:16:41.850Z,17.42
2017-06-14T04:17:09.895Z,17.37
2017-06-14T04:17:38.025Z,17.35
2017-06-14T04:18:06.178Z,17.35
2017-06-14T04:18:34.316Z,17.32
2017-06-14T04:19:02.447Z,17.37
2017-06-14T04:19:30.605Z,17.37
2017-06-14T04:19:58.765Z,17.37
2017-06-14T04:20:26.812Z,17.37
2017-06-14T04:20:54.938Z,17.3
2017-06-14T04:21:23.083Z,17.34
2017-06-14T04:21:51.230Z,17.3
2017-06-14T04:22:19.371Z,17.23
2017-06-14T04:22:47.509Z,17.23
2017-06-14T04:23:15.641Z,17.23
2017-06-14T04:23:43.690Z,17.24
2017-06-14T04:24:11.738Z,17.3
2017-06-14T04:24:39.895Z,17.19
2017-06-14T04:25:08.043Z,17.2
2017-06-14T04:25:36.167Z,17.24
2017-06-14T04:26:04.227Z,17.23
2017-06-14T04:26:32.364Z,17.24
2017-06-14T04:27:00.477Z,17.3
2017-06-14T04:27:28.629Z,17.27
2017-06-14T04:27:56.763Z,17.28
2017-06-14T04:28:24.809Z,17.31
2017-06-14T04:28:52.955Z,17.32
2017-06-14T04:29:21.114Z,17.34
2017-06-14T04:29:49.196Z,17.3
2017-06-14T04:30:17.304Z,17.38
2017-06-14T04:30:45.326Z,17.37
2017-06-14T04:31:13.428Z,17.41
2017-06-14T04:31:41.586Z,17.35
2017-06-14T04:32:09.626Z,17.38
2017-06-14T04:32:37.778Z,17.49
2017-06-14T04:33:05.899Z,17.47
2017-06-14T04:33:34.004Z,17.44
2017-06-14T04:34:02.153Z,17.47
2017-06-14T04:34:30.200Z,17.5
2017-06-14T04:34:58.346Z,17.53
2017-06-14T04:35:26.390Z,17.57
2017-06-14T04:35:54.511Z,17.52
2017-06-14T04:36:22.677Z,17.56
2017-06-14T04:36:50.802Z,17.65
2017-06-14T04:37:18.922Z,17.6
2017-06-14T04:37:47.082Z,17.63
2017-06-14T04:38:15.245Z,17.59
2017-06-14T04:38:43.419Z,17.66
2017-06-14T04:39:11.583Z,17.59
2017-06-14T04:39:39.735Z,17.65
2017-06-14T04:40:07.904Z,17.6
2017-06-14T04:40:36.067Z,17.63
2017-06-14T04:41:04.221Z,17.57
2017-06-14T04:41:32.351Z,17.53
2017-06-14T04:42:00.400Z,17.59
2017-06-14T04:42:28.548Z,17.59
2017-06-14T04:42:56.669Z,17.6
2017-06-14T04:43:24.815Z,17.65
2017-06-14T04:43:52.962Z,17.63
2017-06-14T04:44:21.095Z,17.6
2017-06-14T04:44:49.250Z,17.59
2017-06-14T04:45:17.388Z,17.56
2017-06-14T04:45:45.445Z,17.54
2017-06-14T04:46:13.400Z,17.63
2017-06-14T04:46:41.543Z,17.6
2017-06-14T04:47:09.596Z,17.59
2017-06-14T04:47:37.770Z,17.57
2017-06-14T04:48:05.811Z,17.54
2017-06-14T04:48:33.860Z,17.68
2017-06-14T04:49:02.025Z,17.69
2017-06-14T04:49:30.157Z,17.52
2017-06-14T04:49:58.085Z,17.65
2017-06-14T04:50:26.128Z,17.56
2017-06-14T04:50:54.280Z,17.65
2017-06-14T04:51:22.340Z,17.59
2017-06-14T04:51:50.475Z,17.56
2017-06-14T04:52:18.547Z,17.68
2017-06-14T04:52:46.707Z,17.6
2017-06-14T04:53:14.836Z,17.57
2017-06-14T04:53:42.903Z,17.6
2017-06-14T04:54:10.848Z,17.63
2017-06-14T04:54:38.973Z,17.56
2017-06-14T04:55:07.019Z,17.56
2017-06-14T04:55:35.043Z,17.56
2017-06-14T04:56:03.001Z,17.54
2017-06-14T04:56:31.024Z,17.54
2017-06-14T04:56:59.060Z,17.5
2017-06-14T04:57:27.216Z,17.5
2017-06-14T04:57:55.363Z,17.6
2017-06-14T04:58:23.528Z,17.49
2017-06-14T04:58:51.584Z,17.57
2017-06-14T04:59:19.715Z,17.42
2017-06-14T04:59:47.866Z,17.46
2017-06-14T05:00:16.015Z,17.59
2017-06-14T05:00:44.174Z,17.44
2017-06-14T05:01:12.293Z,17.47
2017-06-14T05:01:40.263Z,17.38
2017-06-14T05:02:11.208Z,17.34
2017-06-14T05:02:37.217Z,17.32
2017-06-14T05:03:05.258Z,17.32
2017-06-14T05:03:33.295Z,17.27
2017-06-14T05:04:01.329Z,17.22
2017-06-14T05:04:29.340Z,17.22
2017-06-14T05:04:57.476Z,17.23
2017-06-14T05:05:25.600Z,17.19
2017-06-14T05:05:53.651Z,17.12
2017-06-14T05:06:22.109Z,17.17
2017-06-14T05:06:50.159Z,17.17
2017-06-14T05:07:18.305Z,17.13
2017-06-14T05:07:46.426Z,17.14
2017-06-14T05:08:14.494Z,17.14
2017-06-14T05:08:42.443Z,17.14
2017-06-14T05:09:10.545Z,17.14
2017-06-14T05:09:38.591Z,17.16
2017-06-14T05:10:06.725Z,17.14
2017-06-14T05:10:34.774Z,17.17
2017-06-14T05:11:02.743Z,17.19
2017-06-14T05:11:30.798Z,17.22
2017-06-14T05:11:58.951Z,17.17
2017-06-14T05:12:26.903Z,17.22
2017-06-14T05:12:55.055Z,17.23
2017-06-14T05:13:23.093Z,17.22
2017-06-14T05:13:51.233Z,17.2
2017-06-14T05:14:19.260Z,17.2
2017-06-14T05:14:47.315Z,17.14
2017-06-14T05:15:15.445Z,17.1
2017-06-14T05:15:43.420Z,17.19
2017-06-14T05:16:11.479Z,17.16
2017-06-14T05:16:39.623Z,17.14
2017-06-14T05:17:07.761Z,17.01
2017-06-14T05:17:35.828Z,17.05
2017-06-14T05:18:03.876Z,17.13
2017-06-14T05:18:32.026Z,17.02
2017-06-14T05:19:00.054Z,16.99
2017-06-14T05:19:28.194Z,16.91
2017-06-14T05:19:56.253Z,16.92
2017-06-14T05:20:24.707Z,16.87
2017-06-14T05:20:52.845Z,16.98
2017-06-14T05:21:20.798Z,16.94
2017-06-14T05:21:48.861Z,16.94
2017-06-14T05:22:16.869Z,16.95
2017-06-14T05:22:45.042Z,16.87
2017-06-14T05:23:13.097Z,16.87
2017-06-14T05:23:41.274Z,16.92
2017-06-14T05:24:09.281Z,16.92
2017-06-14T05:24:37.325Z,16.92
2017-06-14T05:25:05.453Z,16.94
2017-06-14T05:25:33.623Z,16.87
2017-06-14T05:26:01.829Z,16.89
2017-06-14T05:26:29.838Z,16.89
2017-06-14T05:26:57.975Z,16.87
2017-06-14T05:27:26.112Z,16.87
2017-06-14T05:27:54.257Z,16.87
2017-06-14T05:28:22.387Z,16.87
2017-06-14T05:28:50.457Z,16.89
2017-06-14T05:29:18.506Z,16.87
2017-06-14T05:29:46.676Z,16.87
2017-06-14T05:30:14.831Z,16.87
2017-06-14T05:30:42.945Z,16.92
2017-06-14T05:31:10.983Z,16.87
2017-06-14T05:31:39.062Z,16.89
2017-06-14T05:32:07.227Z,16.89
2017-06-14T05:32:35.360Z,16.89
2017-06-14T05:33:03.495Z,16.97
2017-06-14T05:33:31.541Z,16.87
2017-06-14T05:33:59.693Z,16.83
2017-06-14T05:34:27.743Z,16.89
2017-06-14T05:34:55.801Z,16.84
2017-06-14T05:35:23.948Z,16.87
2017-06-14T05:35:51.999Z,16.82
2017-06-14T05:36:20.140Z,16.83
2017-06-14T05:36:48.278Z,16.83
2017-06-14T05:37:16.219Z,16.82
2017-06-14T05:37:44.360Z,16.83
2017-06-14T05:38:12.531Z,16.8
2017-06-14T05:38:40.684Z,16.77
2017-06-14T05:39:08.838Z,16.8
2017-06-14T05:39:36.875Z,16.79
2017-06-14T05:40:05.005Z,16.74
2017-06-14T05:40:33.145Z,16.84
2017-06-14T05:41:01.309Z,16.8
2017-06-14T05:41:29.454Z,16.76
2017-06-14T05:41:57.504Z,16.65
2017-06-14T05:42:25.525Z,16.74
2017-06-14T05:42:53.605Z,16.74
2017-06-14T05:43:21.747Z,16.74
2017-06-14T05:43:49.694Z,16.65
2017-06-14T05:44:17.767Z,16.69
2017-06-14T05:44:45.941Z,16.72
2017-06-14T05:45:14.124Z,16.73
2017-06-14T05:45:42.230Z,16.65
2017-06-14T05:46:10.277Z,16.76
2017-06-14T05:46:38.411Z,16.69
2017-06-14T05:47:06.546Z,16.72
2017-06-14T05:47:34.676Z,16.72
2017-06-14T05:48:02.814Z,16.69
2017-06-14T05:48:30.953Z,16.68
2017-06-14T05:48:58.994Z,16.73
2017-06-14T05:49:27.041Z,16.72
2017-06-14T05:49:55.201Z,16.76
2017-06-14T05:50:23.354Z,16.73
2017-06-14T05:50:51.507Z,16.73
2017-06-14T05:51:19.620Z,16.74
2017-06-14T05:51:47.771Z,16.8
2017-06-14T05:52:15.814Z,16.72
2017-06-14T05:52:43.858Z,16.73
2017-06-14T05:53:11.904Z,16.74
2017-06-14T05:53:40.044Z,16.73
2017-06-14T05:54:08.110Z,16.73
2017-06-14T05:54:36.259Z,16.77
2017-06-14T05:55:04.369Z,16.72
2017-06-14T05:55:32.517Z,16.72
2017-06-14T05:56:00.644Z,16.68
2017-06-14T05:56:28.761Z,16.72
2017-06-14T05:56:56.916Z,16.69
2017-06-14T05:57:24.970Z,16.62
2017-06-14T05:57:53.086Z,16.68
2017-06-14T05:58:21.215Z,16.72
2017-06-14T05:58:49.369Z,16.66
2017-06-14T05:59:17.510Z,16.64
2017-06-14T05:59:45.636Z,16.68
2017-06-14T06:00:13.827Z,16.65
2017-06-14T06:00:41.951Z,16.72
2017-06-14T06:01:10.019Z,16.64
2017-06-14T06:01:38.155Z,16.66
2017-06-14T06:02:06.221Z,16.61
2017-06-14T06:02:34.358Z,16.58
2017-06-14T06:03:02.496Z,16.66
2017-06-14T06:03:30.629Z,16.61